logo
Rechercher aéroport 
image banner adimage banner adimage banner ad
image banner ad

3O8 - Harris Ranch

Situé à Coalinga, United States

ICAO - 3O8, IATA -

Données fournies par Airmate  

Information générale

Coordonnées: N36°14'53" W120°14'18"
Élévation : 470 feet MSL.
Variation magnétique : 15° East
Voir autres Aéroports à California

Données opérationnelles

Special qualification required
Heure actuelle UTC:
Heure actuelle locale:
Météo à : KNLC - Lemoore Nas (Reeves Fld) ( 27 km )
METAR: KNLC 130056Z 03010KT 10SM BKN110 36/12 A2979 RMK AO2 SLP086 MTNS OBSC HZ DSNT NE-SE RH/24 T03560117
TAF: TAF COR KNLC 1023/1123 33009KT 9999 SCT060 BKN100 OVC150 641405 QNH2974INS TEMPO 1101/1107 16012KT 8000 -RA BR BKN045 BKN070 OVC120 FM111000 32010KT 9999 SCT080 BKN100 621404 QNH2981INS FM111600 33008KT 9999 FEW100 FEW200 621305 QNH2985INS LAST NO AMDS AFT 1101 NEXT 1115 T23/1111Z T39/1123Z COR 0043 FS30165
Voir NOTAMs / SUP AIP / TFR affectant cet aéroport [VIEW]
Fréquences de communication: [VIEW]

Pistes:

Identifiant RWYQFULongueur (ft)Largeur (ft)SurfaceLDA (ft)
14282030ASPH
32282030ASPH

Coordonnées de l'aéroport

Adresse: Coalinga United States

Vue satellite de 3O8